sensor_id;sensor_type;location;lat;lon;timestamp;P1;durP1;ratioP1;P2;durP2;ratioP2
77170;SDS011;66144;50.020;14.422;2023-07-29T00:01:49;2.63;;;1.60;;
77170;SDS011;66144;50.020;14.422;2023-07-29T00:04:15;3.45;;;1.67;;
77170;SDS011;66144;50.020;14.422;2023-07-29T00:06:41;2.60;;;1.70;;
77170;SDS011;66144;50.020;14.422;2023-07-29T00:09:06;2.92;;;1.83;;
77170;SDS011;66144;50.020;14.422;2023-07-29T00:11:31;3.08;;;1.90;;
77170;SDS011;66144;50.020;14.422;2023-07-29T00:13:59;2.47;;;1.63;;
77170;SDS011;66144;50.020;14.422;2023-07-29T00:16:25;2.90;;;2.03;;
77170;SDS011;66144;50.020;14.422;2023-07-29T00:18:51;3.33;;;1.85;;
77170;SDS011;66144;50.020;14.422;2023-07-29T00:21:16;2.17;;;1.48;;
77170;SDS011;66144;50.020;14.422;2023-07-29T00:23:42;2.35;;;1.60;;
77170;SDS011;66144;50.020;14.422;2023-07-29T00:26:07;2.08;;;1.55;;
77170;SDS011;66144;50.020;14.422;2023-07-29T00:28:33;3.25;;;1.77;;
77170;SDS011;66144;50.020;14.422;2023-07-29T00:30:58;3.50;;;1.50;;
77170;SDS011;66144;50.020;14.422;2023-07-29T00:33:24;2.63;;;1.83;;
77170;SDS011;66144;50.020;14.422;2023-07-29T00:35:49;2.17;;;1.70;;
77170;SDS011;66144;50.020;14.422;2023-07-29T00:38:15;3.35;;;1.88;;
77170;SDS011;66144;50.020;14.422;2023-07-29T00:40:40;2.60;;;1.70;;
77170;SDS011;66144;50.020;14.422;2023-07-29T00:43:06;3.00;;;1.52;;
77170;SDS011;66144;50.020;14.422;2023-07-29T00:45:31;2.72;;;1.50;;
77170;SDS011;66144;50.020;14.422;2023-07-29T00:47:58;2.35;;;1.77;;
77170;SDS011;66144;50.020;14.422;2023-07-29T00:50:24;2.60;;;1.55;;
77170;SDS011;66144;50.020;14.422;2023-07-29T00:52:52;2.35;;;1.58;;
77170;SDS011;66144;50.020;14.422;2023-07-29T00:55:18;3.72;;;1.77;;
77170;SDS011;66144;50.020;14.422;2023-07-29T00:57:44;2.30;;;1.70;;
77170;SDS011;66144;50.020;14.422;2023-07-29T01:00:13;3.08;;;1.75;;
77170;SDS011;66144;50.020;14.422;2023-07-29T01:02:39;3.70;;;2.08;;
77170;SDS011;66144;50.020;14.422;2023-07-29T01:05:04;3.00;;;1.77;;
77170;SDS011;66144;50.020;14.422;2023-07-29T01:10:51;2.90;;;1.70;;
77170;SDS011;66144;50.020;14.422;2023-07-29T01:13:37;2.70;;;2.00;;
77170;SDS011;66144;50.020;14.422;2023-07-29T01:16:17;2.58;;;1.70;;
77170;SDS011;66144;50.020;14.422;2023-07-29T01:18:48;2.88;;;1.90;;
77170;SDS011;66144;50.020;14.422;2023-07-29T01:21:17;2.88;;;1.83;;
77170;SDS011;66144;50.020;14.422;2023-07-29T01:23:44;3.20;;;2.00;;
77170;SDS011;66144;50.020;14.422;2023-07-29T01:26:09;2.60;;;1.80;;
77170;SDS011;66144;50.020;14.422;2023-07-29T01:28:35;3.75;;;1.83;;
77170;SDS011;66144;50.020;14.422;2023-07-29T01:33:30;2.92;;;1.80;;
77170;SDS011;66144;50.020;14.422;2023-07-29T01:36:07;2.78;;;1.95;;
77170;SDS011;66144;50.020;14.422;2023-07-29T01:38:36;2.50;;;1.60;;
77170;SDS011;66144;50.020;14.422;2023-07-29T01:41:04;3.45;;;1.67;;
77170;SDS011;66144;50.020;14.422;2023-07-29T01:43:32;2.60;;;1.75;;
77170;SDS011;66144;50.020;14.422;2023-07-29T01:45:58;2.53;;;2.03;;
77170;SDS011;66144;50.020;14.422;2023-07-29T01:48:25;3.25;;;1.83;;
77170;SDS011;66144;50.020;14.422;2023-07-29T01:50:52;3.05;;;1.90;;
77170;SDS011;66144;50.020;14.422;2023-07-29T01:53:17;2.78;;;1.80;;
77170;SDS011;66144;50.020;14.422;2023-07-29T01:55:43;2.92;;;1.70;;
77170;SDS011;66144;50.020;14.422;2023-07-29T01:58:09;3.63;;;2.03;;
77170;SDS011;66144;50.020;14.422;2023-07-29T02:00:35;2.67;;;1.60;;
77170;SDS011;66144;50.020;14.422;2023-07-29T02:03:00;2.58;;;2.00;;
77170;SDS011;66144;50.020;14.422;2023-07-29T02:05:26;2.50;;;1.83;;
77170;SDS011;66144;50.020;14.422;2023-07-29T02:07:51;2.90;;;2.10;;
77170;SDS011;66144;50.020;14.422;2023-07-29T02:10:17;3.00;;;1.70;;
77170;SDS011;66144;50.020;14.422;2023-07-29T02:12:42;3.20;;;1.70;;
77170;SDS011;66144;50.020;14.422;2023-07-29T02:15:08;3.85;;;2.08;;
77170;SDS011;66144;50.020;14.422;2023-07-29T02:17:34;3.00;;;1.60;;
77170;SDS011;66144;50.020;14.422;2023-07-29T02:20:00;2.55;;;1.80;;
77170;SDS011;66144;50.020;14.422;2023-07-29T02:22:25;2.90;;;1.90;;
77170;SDS011;66144;50.020;14.422;2023-07-29T02:24:50;2.60;;;1.75;;
77170;SDS011;66144;50.020;14.422;2023-07-29T02:27:16;3.20;;;1.88;;
77170;SDS011;66144;50.020;14.422;2023-07-29T02:29:41;2.72;;;1.75;;
77170;SDS011;66144;50.020;14.422;2023-07-29T02:32:07;2.33;;;1.60;;
77170;SDS011;66144;50.020;14.422;2023-07-29T02:34:32;2.60;;;1.90;;
77170;SDS011;66144;50.020;14.422;2023-07-29T02:36:57;2.63;;;1.50;;
77170;SDS011;66144;50.020;14.422;2023-07-29T02:39:23;2.25;;;1.40;;
77170;SDS011;66144;50.020;14.422;2023-07-29T02:41:49;4.15;;;1.85;;
77170;SDS011;66144;50.020;14.422;2023-07-29T02:44:14;3.70;;;1.58;;
77170;SDS011;66144;50.020;14.422;2023-07-29T02:46:40;2.33;;;1.42;;
77170;SDS011;66144;50.020;14.422;2023-07-29T02:49:06;2.33;;;1.60;;
77170;SDS011;66144;50.020;14.422;2023-07-29T02:51:31;2.28;;;1.55;;
77170;SDS011;66144;50.020;14.422;2023-07-29T02:53:57;1.92;;;1.23;;
77170;SDS011;66144;50.020;14.422;2023-07-29T02:56:22;2.28;;;1.60;;
77170;SDS011;66144;50.020;14.422;2023-07-29T02:58:48;2.58;;;1.38;;
77170;SDS011;66144;50.020;14.422;2023-07-29T03:01:16;2.05;;;1.40;;
77170;SDS011;66144;50.020;14.422;2023-07-29T03:03:42;1.98;;;1.30;;
77170;SDS011;66144;50.020;14.422;2023-07-29T03:06:08;2.00;;;1.48;;
77170;SDS011;66144;50.020;14.422;2023-07-29T03:08:35;2.38;;;1.52;;
77170;SDS011;66144;50.020;14.422;2023-07-29T03:11:11;2.67;;;1.30;;
77170;SDS011;66144;50.020;14.422;2023-07-29T03:13:38;2.33;;;1.40;;
77170;SDS011;66144;50.020;14.422;2023-07-29T03:16:07;1.52;;;1.20;;
77170;SDS011;66144;50.020;14.422;2023-07-29T03:18:37;2.13;;;1.33;;
77170;SDS011;66144;50.020;14.422;2023-07-29T03:21:03;1.95;;;1.10;;
77170;SDS011;66144;50.020;14.422;2023-07-29T03:23:29;1.98;;;1.27;;
77170;SDS011;66144;50.020;14.422;2023-07-29T03:25:55;2.35;;;1.25;;
77170;SDS011;66144;50.020;14.422;2023-07-29T03:28:26;1.73;;;1.10;;
77170;SDS011;66144;50.020;14.422;2023-07-29T03:30:53;1.95;;;1.40;;
77170;SDS011;66144;50.020;14.422;2023-07-29T03:33:19;1.83;;;1.40;;
77170;SDS011;66144;50.020;14.422;2023-07-29T03:35:44;1.75;;;1.20;;
77170;SDS011;66144;50.020;14.422;2023-07-29T03:38:13;2.03;;;1.30;;
77170;SDS011;66144;50.020;14.422;2023-07-29T03:40:38;1.90;;;1.27;;
77170;SDS011;66144;50.020;14.422;2023-07-29T03:43:04;2.28;;;1.20;;
77170;SDS011;66144;50.020;14.422;2023-07-29T03:45:30;3.00;;;1.33;;
77170;SDS011;66144;50.020;14.422;2023-07-29T03:47:56;2.33;;;1.35;;
77170;SDS011;66144;50.020;14.422;2023-07-29T03:50:21;2.17;;;1.27;;
77170;SDS011;66144;50.020;14.422;2023-07-29T03:52:47;1.60;;;1.10;;
77170;SDS011;66144;50.020;14.422;2023-07-29T03:55:12;2.65;;;1.30;;
77170;SDS011;66144;50.020;14.422;2023-07-29T03:57:37;2.83;;;1.50;;
77170;SDS011;66144;50.020;14.422;2023-07-29T04:00:03;1.70;;;1.20;;
77170;SDS011;66144;50.020;14.422;2023-07-29T04:02:29;2.60;;;1.42;;
77170;SDS011;66144;50.020;14.422;2023-07-29T04:04:55;2.10;;;1.40;;
77170;SDS011;66144;50.020;14.422;2023-07-29T04:07:20;2.65;;;1.40;;
77170;SDS011;66144;50.020;14.422;2023-07-29T04:09:45;2.28;;;1.52;;
77170;SDS011;66144;50.020;14.422;2023-07-29T04:12:11;2.13;;;1.30;;
77170;SDS011;66144;50.020;14.422;2023-07-29T04:14:36;2.60;;;1.40;;
77170;SDS011;66144;50.020;14.422;2023-07-29T04:17:02;2.25;;;1.42;;
77170;SDS011;66144;50.020;14.422;2023-07-29T04:19:27;1.90;;;1.33;;
77170;SDS011;66144;50.020;14.422;2023-07-29T04:21:53;2.00;;;1.38;;
77170;SDS011;66144;50.020;14.422;2023-07-29T04:24:18;1.70;;;1.20;;
77170;SDS011;66144;50.020;14.422;2023-07-29T04:26:45;4.50;;;1.48;;
77170;SDS011;66144;50.020;14.422;2023-07-29T04:29:11;3.10;;;1.50;;
77170;SDS011;66144;50.020;14.422;2023-07-29T04:31:37;2.78;;;1.60;;
77170;SDS011;66144;50.020;14.422;2023-07-29T04:34:02;2.17;;;1.33;;
77170;SDS011;66144;50.020;14.422;2023-07-29T04:36:28;3.38;;;1.50;;
77170;SDS011;66144;50.020;14.422;2023-07-29T04:38:54;3.92;;;1.38;;
77170;SDS011;66144;50.020;14.422;2023-07-29T04:41:19;2.00;;;1.30;;
77170;SDS011;66144;50.020;14.422;2023-07-29T04:43:44;3.05;;;1.20;;
77170;SDS011;66144;50.020;14.422;2023-07-29T04:46:10;3.05;;;1.60;;
77170;SDS011;66144;50.020;14.422;2023-07-29T04:48:35;2.40;;;1.40;;
77170;SDS011;66144;50.020;14.422;2023-07-29T04:51:00;2.70;;;2.08;;
77170;SDS011;66144;50.020;14.422;2023-07-29T04:53:26;3.35;;;1.20;;
77170;SDS011;66144;50.020;14.422;2023-07-29T04:55:51;3.05;;;1.52;;
77170;SDS011;66144;50.020;14.422;2023-07-29T04:58:17;2.42;;;1.30;;
77170;SDS011;66144;50.020;14.422;2023-07-29T05:00:42;2.28;;;1.42;;
77170;SDS011;66144;50.020;14.422;2023-07-29T05:03:07;2.08;;;1.25;;
77170;SDS011;66144;50.020;14.422;2023-07-29T05:05:33;3.80;;;1.60;;
77170;SDS011;66144;50.020;14.422;2023-07-29T05:07:58;2.17;;;1.30;;
77170;SDS011;66144;50.020;14.422;2023-07-29T05:10:24;2.17;;;1.40;;
77170;SDS011;66144;50.020;14.422;2023-07-29T05:12:49;1.85;;;1.13;;
77170;SDS011;66144;50.020;14.422;2023-07-29T05:15:15;2.17;;;1.23;;
77170;SDS011;66144;50.020;14.422;2023-07-29T05:17:40;2.72;;;1.27;;
77170;SDS011;66144;50.020;14.422;2023-07-29T05:20:06;1.80;;;1.08;;
77170;SDS011;66144;50.020;14.422;2023-07-29T05:22:32;2.08;;;1.17;;
77170;SDS011;66144;50.020;14.422;2023-07-29T05:24:57;2.35;;;1.33;;
77170;SDS011;66144;50.020;14.422;2023-07-29T05:27:22;1.58;;;1.00;;
77170;SDS011;66144;50.020;14.422;2023-07-29T05:29:48;2.13;;;1.35;;
77170;SDS011;66144;50.020;14.422;2023-07-29T05:32:13;2.80;;;1.48;;
77170;SDS011;66144;50.020;14.422;2023-07-29T05:34:40;2.70;;;1.25;;
77170;SDS011;66144;50.020;14.422;2023-07-29T05:37:06;2.20;;;1.48;;
77170;SDS011;66144;50.020;14.422;2023-07-29T05:39:31;3.78;;;1.40;;
77170;SDS011;66144;50.020;14.422;2023-07-29T05:41:58;2.90;;;1.30;;
77170;SDS011;66144;50.020;14.422;2023-07-29T05:44:23;2.15;;;1.10;;
77170;SDS011;66144;50.020;14.422;2023-07-29T05:46:49;1.90;;;1.17;;
77170;SDS011;66144;50.020;14.422;2023-07-29T05:49:14;2.25;;;1.23;;
77170;SDS011;66144;50.020;14.422;2023-07-29T05:51:40;2.22;;;1.23;;
77170;SDS011;66144;50.020;14.422;2023-07-29T05:54:05;2.42;;;1.20;;
77170;SDS011;66144;50.020;14.422;2023-07-29T05:56:32;3.70;;;1.42;;
77170;SDS011;66144;50.020;14.422;2023-07-29T05:58:58;2.20;;;1.20;;
77170;SDS011;66144;50.020;14.422;2023-07-29T06:01:23;2.30;;;1.30;;
77170;SDS011;66144;50.020;14.422;2023-07-29T06:03:50;3.17;;;1.27;;
77170;SDS011;66144;50.020;14.422;2023-07-29T06:06:16;2.33;;;1.23;;
77170;SDS011;66144;50.020;14.422;2023-07-29T06:08:41;1.80;;;1.25;;
77170;SDS011;66144;50.020;14.422;2023-07-29T06:11:06;2.45;;;1.20;;
77170;SDS011;66144;50.020;14.422;2023-07-29T06:13:32;2.30;;;1.33;;
77170;SDS011;66144;50.020;14.422;2023-07-29T06:15:58;2.20;;;1.23;;
77170;SDS011;66144;50.020;14.422;2023-07-29T06:18:25;3.45;;;1.30;;
77170;SDS011;66144;50.020;14.422;2023-07-29T06:20:51;2.53;;;1.30;;
77170;SDS011;66144;50.020;14.422;2023-07-29T06:23:16;2.80;;;1.33;;
77170;SDS011;66144;50.020;14.422;2023-07-29T06:25:42;3.05;;;1.40;;
77170;SDS011;66144;50.020;14.422;2023-07-29T06:28:08;2.33;;;1.50;;
77170;SDS011;66144;50.020;14.422;2023-07-29T06:30:34;3.08;;;1.23;;
77170;SDS011;66144;50.020;14.422;2023-07-29T06:33:00;4.28;;;1.35;;
77170;SDS011;66144;50.020;14.422;2023-07-29T06:35:25;5.03;;;1.50;;
77170;SDS011;66144;50.020;14.422;2023-07-29T06:37:50;2.85;;;1.42;;
77170;SDS011;66144;50.020;14.422;2023-07-29T06:40:16;3.63;;;1.60;;
77170;SDS011;66144;50.020;14.422;2023-07-29T06:42:41;2.70;;;1.30;;
77170;SDS011;66144;50.020;14.422;2023-07-29T06:45:07;2.42;;;1.40;;
77170;SDS011;66144;50.020;14.422;2023-07-29T06:47:33;1.88;;;1.27;;
77170;SDS011;66144;50.020;14.422;2023-07-29T06:49:58;2.55;;;1.35;;
77170;SDS011;66144;50.020;14.422;2023-07-29T06:52:24;3.08;;;1.40;;
77170;SDS011;66144;50.020;14.422;2023-07-29T06:54:49;2.13;;;1.20;;
77170;SDS011;66144;50.020;14.422;2023-07-29T06:57:15;2.17;;;1.33;;
77170;SDS011;66144;50.020;14.422;2023-07-29T06:59:40;2.60;;;1.42;;
77170;SDS011;66144;50.020;14.422;2023-07-29T07:02:06;2.83;;;1.40;;
77170;SDS011;66144;50.020;14.422;2023-07-29T07:04:32;2.85;;;1.40;;
77170;SDS011;66144;50.020;14.422;2023-07-29T07:06:57;1.98;;;1.40;;
77170;SDS011;66144;50.020;14.422;2023-07-29T07:09:22;2.13;;;1.38;;
77170;SDS011;66144;50.020;14.422;2023-07-29T07:11:48;2.17;;;1.30;;
77170;SDS011;66144;50.020;14.422;2023-07-29T07:14:13;2.00;;;1.42;;
77170;SDS011;66144;50.020;14.422;2023-07-29T07:16:38;2.03;;;1.30;;
77170;SDS011;66144;50.020;14.422;2023-07-29T07:19:04;2.20;;;1.40;;
77170;SDS011;66144;50.020;14.422;2023-07-29T07:21:30;2.10;;;1.45;;
77170;SDS011;66144;50.020;14.422;2023-07-29T07:23:57;1.85;;;1.20;;
77170;SDS011;66144;50.020;14.422;2023-07-29T07:26:23;2.95;;;1.50;;
77170;SDS011;66144;50.020;14.422;2023-07-29T07:28:48;1.75;;;1.40;;
77170;SDS011;66144;50.020;14.422;2023-07-29T07:31:13;2.80;;;1.70;;
77170;SDS011;66144;50.020;14.422;2023-07-29T07:33:41;2.20;;;1.58;;
77170;SDS011;66144;50.020;14.422;2023-07-29T07:36:06;1.80;;;1.20;;
77170;SDS011;66144;50.020;14.422;2023-07-29T07:38:32;2.97;;;1.33;;
77170;SDS011;66144;50.020;14.422;2023-07-29T07:40:57;2.80;;;1.52;;
77170;SDS011;66144;50.020;14.422;2023-07-29T07:43:23;2.90;;;1.60;;
77170;SDS011;66144;50.020;14.422;2023-07-29T07:45:49;1.98;;;1.40;;
77170;SDS011;66144;50.020;14.422;2023-07-29T07:48:15;2.15;;;1.50;;
77170;SDS011;66144;50.020;14.422;2023-07-29T07:50:42;1.92;;;1.30;;
77170;SDS011;66144;50.020;14.422;2023-07-29T07:53:10;2.78;;;1.30;;
77170;SDS011;66144;50.020;14.422;2023-07-29T07:55:36;1.65;;;1.08;;
77170;SDS011;66144;50.020;14.422;2023-07-29T07:58:03;2.60;;;1.35;;
77170;SDS011;66144;50.020;14.422;2023-07-29T08:00:29;2.22;;;1.30;;
77170;SDS011;66144;50.020;14.422;2023-07-29T08:02:55;3.17;;;1.25;;
77170;SDS011;66144;50.020;14.422;2023-07-29T08:05:20;3.28;;;1.30;;
77170;SDS011;66144;50.020;14.422;2023-07-29T08:07:45;1.48;;;1.13;;
77170;SDS011;66144;50.020;14.422;2023-07-29T08:10:11;3.00;;;1.30;;
77170;SDS011;66144;50.020;14.422;2023-07-29T08:12:36;2.35;;;1.40;;
77170;SDS011;66144;50.020;14.422;2023-07-29T08:15:02;2.10;;;1.10;;
77170;SDS011;66144;50.020;14.422;2023-07-29T08:17:28;1.58;;;1.08;;
77170;SDS011;66144;50.020;14.422;2023-07-29T08:19:55;2.20;;;1.00;;
77170;SDS011;66144;50.020;14.422;2023-07-29T08:22:22;1.38;;;0.80;;
77170;SDS011;66144;50.020;14.422;2023-07-29T08:24:48;1.20;;;0.80;;
77170;SDS011;66144;50.020;14.422;2023-07-29T08:27:13;1.75;;;0.90;;
77170;SDS011;66144;50.020;14.422;2023-07-29T08:29:39;1.35;;;0.95;;
77170;SDS011;66144;50.020;14.422;2023-07-29T08:32:04;1.98;;;1.20;;
77170;SDS011;66144;50.020;14.422;2023-07-29T08:34:30;1.55;;;0.98;;
77170;SDS011;66144;50.020;14.422;2023-07-29T08:36:55;1.40;;;0.90;;
77170;SDS011;66144;50.020;14.422;2023-07-29T08:39:21;2.08;;;1.05;;
77170;SDS011;66144;50.020;14.422;2023-07-29T08:41:57;0.95;;;0.77;;
77170;SDS011;66144;50.020;14.422;2023-07-29T08:44:30;1.52;;;1.13;;
77170;SDS011;66144;50.020;14.422;2023-07-29T08:47:02;2.63;;;1.02;;
77170;SDS011;66144;50.020;14.422;2023-07-29T08:49:28;1.42;;;1.00;;
77170;SDS011;66144;50.020;14.422;2023-07-29T08:51:55;1.45;;;1.00;;
77170;SDS011;66144;50.020;14.422;2023-07-29T08:54:22;1.45;;;1.02;;
77170;SDS011;66144;50.020;14.422;2023-07-29T08:56:48;1.05;;;0.90;;
77170;SDS011;66144;50.020;14.422;2023-07-29T08:59:14;2.80;;;1.35;;
77170;SDS011;66144;50.020;14.422;2023-07-29T09:01:42;1.63;;;1.10;;
77170;SDS011;66144;50.020;14.422;2023-07-29T09:04:10;1.42;;;1.20;;
77170;SDS011;66144;50.020;14.422;2023-07-29T09:06:41;1.80;;;0.93;;
77170;SDS011;66144;50.020;14.422;2023-07-29T09:09:13;2.08;;;1.33;;
77170;SDS011;66144;50.020;14.422;2023-07-29T09:14:08;2.45;;;1.00;;
77170;SDS011;66144;50.020;14.422;2023-07-29T09:16:37;2.63;;;1.00;;
77170;SDS011;66144;50.020;14.422;2023-07-29T09:19:05;1.45;;;1.08;;
77170;SDS011;66144;50.020;14.422;2023-07-29T09:21:32;1.92;;;1.30;;
77170;SDS011;66144;50.020;14.422;2023-07-29T09:23:57;1.45;;;1.02;;
77170;SDS011;66144;50.020;14.422;2023-07-29T09:26:33;1.25;;;0.90;;
77170;SDS011;66144;50.020;14.422;2023-07-29T09:28:59;2.90;;;1.10;;
77170;SDS011;66144;50.020;14.422;2023-07-29T09:31:25;1.85;;;1.20;;
77170;SDS011;66144;50.020;14.422;2023-07-29T09:33:56;1.85;;;1.10;;
77170;SDS011;66144;50.020;14.422;2023-07-29T09:36:26;3.30;;;1.30;;
77170;SDS011;66144;50.020;14.422;2023-07-29T09:38:55;2.67;;;1.10;;
77170;SDS011;66144;50.020;14.422;2023-07-29T09:41:25;1.85;;;1.10;;
77170;SDS011;66144;50.020;14.422;2023-07-29T09:43:58;1.38;;;0.80;;
77170;SDS011;66144;50.020;14.422;2023-07-29T09:46:34;2.80;;;1.20;;
77170;SDS011;66144;50.020;14.422;2023-07-29T09:49:04;2.03;;;1.30;;
77170;SDS011;66144;50.020;14.422;2023-07-29T09:51:30;1.25;;;0.90;;
77170;SDS011;66144;50.020;14.422;2023-07-29T09:53:56;1.48;;;1.10;;
77170;SDS011;66144;50.020;14.422;2023-07-29T09:56:26;1.77;;;1.00;;
77170;SDS011;66144;50.020;14.422;2023-07-29T09:58:52;2.17;;;1.20;;
77170;SDS011;66144;50.020;14.422;2023-07-29T10:01:18;1.83;;;1.20;;
77170;SDS011;66144;50.020;14.422;2023-07-29T10:03:44;1.25;;;0.90;;
77170;SDS011;66144;50.020;14.422;2023-07-29T10:06:10;1.30;;;0.80;;
77170;SDS011;66144;50.020;14.422;2023-07-29T10:08:36;1.15;;;0.90;;
77170;SDS011;66144;50.020;14.422;2023-07-29T10:11:05;1.45;;;0.90;;
77170;SDS011;66144;50.020;14.422;2023-07-29T10:13:34;1.23;;;0.95;;
77170;SDS011;66144;50.020;14.422;2023-07-29T10:16:00;2.03;;;1.00;;
77170;SDS011;66144;50.020;14.422;2023-07-29T10:18:29;2.42;;;1.13;;
77170;SDS011;66144;50.020;14.422;2023-07-29T10:20:56;1.75;;;0.90;;
77170;SDS011;66144;50.020;14.422;2023-07-29T10:23:23;0.98;;;0.88;;
77170;SDS011;66144;50.020;14.422;2023-07-29T10:25:54;1.98;;;1.10;;
77170;SDS011;66144;50.020;14.422;2023-07-29T10:28:26;1.55;;;1.02;;
77170;SDS011;66144;50.020;14.422;2023-07-29T10:30:54;1.33;;;1.02;;
77170;SDS011;66144;50.020;14.422;2023-07-29T10:33:21;1.30;;;0.85;;
77170;SDS011;66144;50.020;14.422;2023-07-29T10:35:47;2.13;;;0.93;;
77170;SDS011;66144;50.020;14.422;2023-07-29T10:38:12;1.88;;;0.95;;
77170;SDS011;66144;50.020;14.422;2023-07-29T10:40:57;1.52;;;1.05;;
77170;SDS011;66144;50.020;14.422;2023-07-29T10:45:57;1.38;;;0.85;;
77170;SDS011;66144;50.020;14.422;2023-07-29T10:48:43;1.58;;;1.20;;
77170;SDS011;66144;50.020;14.422;2023-07-29T10:53:54;2.30;;;1.10;;
77170;SDS011;66144;50.020;14.422;2023-07-29T10:56:28;2.20;;;1.10;;
77170;SDS011;66144;50.020;14.422;2023-07-29T10:59:00;2.78;;;1.23;;
77170;SDS011;66144;50.020;14.422;2023-07-29T11:01:57;1.90;;;1.05;;
77170;SDS011;66144;50.020;14.422;2023-07-29T11:04:32;2.10;;;1.17;;
77170;SDS011;66144;50.020;14.422;2023-07-29T11:17:45;2.22;;;1.27;;
77170;SDS011;66144;50.020;14.422;2023-07-29T11:20:11;8.20;;;1.50;;
77170;SDS011;66144;50.020;14.422;2023-07-29T11:22:37;2.47;;;1.15;;
77170;SDS011;66144;50.020;14.422;2023-07-29T11:25:04;2.67;;;1.00;;
77170;SDS011;66144;50.020;14.422;2023-07-29T11:27:32;2.25;;;0.80;;
77170;SDS011;66144;50.020;14.422;2023-07-29T11:29:58;2.50;;;0.90;;
77170;SDS011;66144;50.020;14.422;2023-07-29T11:32:25;3.80;;;0.90;;
77170;SDS011;66144;50.020;14.422;2023-07-29T11:34:51;3.47;;;1.30;;
77170;SDS011;66144;50.020;14.422;2023-07-29T11:37:16;2.33;;;0.88;;
77170;SDS011;66144;50.020;14.422;2023-07-29T11:39:42;3.60;;;1.60;;
77170;SDS011;66144;50.020;14.422;2023-07-29T11:42:12;5.05;;;1.48;;
77170;SDS011;66144;50.020;14.422;2023-07-29T11:44:39;2.38;;;1.15;;
77170;SDS011;66144;50.020;14.422;2023-07-29T11:47:10;4.00;;;1.40;;
77170;SDS011;66144;50.020;14.422;2023-07-29T11:49:40;2.22;;;0.80;;
77170;SDS011;66144;50.020;14.422;2023-07-29T11:52:10;2.60;;;0.93;;
77170;SDS011;66144;50.020;14.422;2023-07-29T11:54:36;2.83;;;0.95;;
77170;SDS011;66144;50.020;14.422;2023-07-29T11:57:06;1.23;;;0.75;;
77170;SDS011;66144;50.020;14.422;2023-07-29T11:59:33;2.53;;;0.82;;
77170;SDS011;66144;50.020;14.422;2023-07-29T12:02:09;3.45;;;1.33;;
77170;SDS011;66144;50.020;14.422;2023-07-29T12:04:37;4.57;;;1.17;;
77170;SDS011;66144;50.020;14.422;2023-07-29T12:07:04;3.25;;;0.95;;
77170;SDS011;66144;50.020;14.422;2023-07-29T12:09:30;2.15;;;1.02;;
77170;SDS011;66144;50.020;14.422;2023-07-29T12:11:55;1.50;;;0.90;;
77170;SDS011;66144;50.020;14.422;2023-07-29T12:14:21;3.03;;;1.05;;
77170;SDS011;66144;50.020;14.422;2023-07-29T12:16:50;2.90;;;0.80;;
77170;SDS011;66144;50.020;14.422;2023-07-29T12:19:17;2.22;;;1.00;;
77170;SDS011;66144;50.020;14.422;2023-07-29T12:21:43;2.97;;;0.90;;
77170;SDS011;66144;50.020;14.422;2023-07-29T12:24:09;2.60;;;0.77;;
77170;SDS011;66144;50.020;14.422;2023-07-29T12:26:38;1.27;;;0.70;;
77170;SDS011;66144;50.020;14.422;2023-07-29T12:29:13;1.75;;;0.82;;
77170;SDS011;66144;50.020;14.422;2023-07-29T12:31:39;2.50;;;0.90;;
77170;SDS011;66144;50.020;14.422;2023-07-29T12:34:04;2.03;;;0.90;;
77170;SDS011;66144;50.020;14.422;2023-07-29T12:39:28;4.68;;;0.98;;
77170;SDS011;66144;50.020;14.422;2023-07-29T12:41:56;1.80;;;0.85;;
77170;SDS011;66144;50.020;14.422;2023-07-29T12:44:23;1.77;;;0.90;;
77170;SDS011;66144;50.020;14.422;2023-07-29T12:46:49;2.70;;;1.13;;
77170;SDS011;66144;50.020;14.422;2023-07-29T12:49:15;3.95;;;1.42;;
77170;SDS011;66144;50.020;14.422;2023-07-29T12:51:40;3.03;;;1.38;;
77170;SDS011;66144;50.020;14.422;2023-07-29T12:54:06;2.70;;;1.17;;
77170;SDS011;66144;50.020;14.422;2023-07-29T12:56:32;4.10;;;1.50;;
77170;SDS011;66144;50.020;14.422;2023-07-29T12:58:58;2.47;;;1.05;;
77170;SDS011;66144;50.020;14.422;2023-07-29T13:01:24;3.13;;;1.27;;
77170;SDS011;66144;50.020;14.422;2023-07-29T13:03:50;2.17;;;0.93;;
77170;SDS011;66144;50.020;14.422;2023-07-29T13:06:16;3.75;;;1.00;;
77170;SDS011;66144;50.020;14.422;2023-07-29T13:08:42;2.85;;;1.00;;
77170;SDS011;66144;50.020;14.422;2023-07-29T13:11:08;4.13;;;1.20;;
77170;SDS011;66144;50.020;14.422;2023-07-29T13:13:33;2.38;;;1.40;;
77170;SDS011;66144;50.020;14.422;2023-07-29T13:15:59;2.45;;;1.17;;
77170;SDS011;66144;50.020;14.422;2023-07-29T13:18:24;3.00;;;1.30;;
77170;SDS011;66144;50.020;14.422;2023-07-29T13:20:50;3.72;;;1.17;;
77170;SDS011;66144;50.020;14.422;2023-07-29T13:23:15;2.53;;;1.33;;
77170;SDS011;66144;50.020;14.422;2023-07-29T13:25:41;3.00;;;1.50;;
77170;SDS011;66144;50.020;14.422;2023-07-29T13:28:08;2.15;;;1.20;;
77170;SDS011;66144;50.020;14.422;2023-07-29T13:30:34;2.38;;;1.02;;
77170;SDS011;66144;50.020;14.422;2023-07-29T13:33:00;2.30;;;1.48;;
77170;SDS011;66144;50.020;14.422;2023-07-29T13:35:25;3.17;;;1.55;;
77170;SDS011;66144;50.020;14.422;2023-07-29T13:37:50;2.63;;;1.23;;
77170;SDS011;66144;50.020;14.422;2023-07-29T13:40:16;2.72;;;1.50;;
77170;SDS011;66144;50.020;14.422;2023-07-29T13:42:41;2.55;;;1.45;;
77170;SDS011;66144;50.020;14.422;2023-07-29T13:45:07;2.30;;;1.33;;
77170;SDS011;66144;50.020;14.422;2023-07-29T13:47:33;1.75;;;1.00;;
77170;SDS011;66144;50.020;14.422;2023-07-29T13:49:59;2.10;;;1.10;;
77170;SDS011;66144;50.020;14.422;2023-07-29T13:52:24;1.75;;;1.25;;
77170;SDS011;66144;50.020;14.422;2023-07-29T13:54:50;2.58;;;1.15;;
77170;SDS011;66144;50.020;14.422;2023-07-29T13:57:15;2.25;;;1.10;;
77170;SDS011;66144;50.020;14.422;2023-07-29T13:59:41;1.33;;;0.90;;
77170;SDS011;66144;50.020;14.422;2023-07-29T14:02:06;1.85;;;1.08;;
77170;SDS011;66144;50.020;14.422;2023-07-29T14:04:32;1.10;;;0.80;;
77170;SDS011;66144;50.020;14.422;2023-07-29T14:06:58;2.47;;;1.10;;
77170;SDS011;66144;50.020;14.422;2023-07-29T14:09:24;1.65;;;0.90;;
77170;SDS011;66144;50.020;14.422;2023-07-29T14:11:50;1.45;;;1.02;;
77170;SDS011;66144;50.020;14.422;2023-07-29T14:14:15;1.83;;;1.00;;
77170;SDS011;66144;50.020;14.422;2023-07-29T14:16:41;1.77;;;1.05;;
77170;SDS011;66144;50.020;14.422;2023-07-29T14:19:06;1.80;;;0.90;;
77170;SDS011;66144;50.020;14.422;2023-07-29T14:21:32;1.58;;;0.90;;
77170;SDS011;66144;50.020;14.422;2023-07-29T14:23:57;1.67;;;1.10;;
77170;SDS011;66144;50.020;14.422;2023-07-29T14:26:23;1.48;;;0.82;;
77170;SDS011;66144;50.020;14.422;2023-07-29T14:28:48;1.08;;;0.80;;
77170;SDS011;66144;50.020;14.422;2023-07-29T14:31:15;1.50;;;1.10;;
77170;SDS011;66144;50.020;14.422;2023-07-29T14:33:42;2.65;;;0.90;;
77170;SDS011;66144;50.020;14.422;2023-07-29T14:36:10;2.15;;;0.82;;
77170;SDS011;66144;50.020;14.422;2023-07-29T14:38:35;2.25;;;1.00;;
77170;SDS011;66144;50.020;14.422;2023-07-29T14:41:02;1.45;;;0.90;;
77170;SDS011;66144;50.020;14.422;2023-07-29T14:43:29;2.45;;;1.08;;
77170;SDS011;66144;50.020;14.422;2023-07-29T14:45:56;1.98;;;1.10;;
77170;SDS011;66144;50.020;14.422;2023-07-29T14:48:21;1.85;;;1.10;;
77170;SDS011;66144;50.020;14.422;2023-07-29T14:50:48;5.57;;;1.33;;
77170;SDS011;66144;50.020;14.422;2023-07-29T14:53:13;1.67;;;1.10;;
77170;SDS011;66144;50.020;14.422;2023-07-29T14:55:39;1.63;;;1.00;;
77170;SDS011;66144;50.020;14.422;2023-07-29T14:58:04;2.17;;;1.08;;